Time;durP1;ratioP1;P1;durP2;ratioP2;P2;SDS_P1;SDS_P2;PMS_P1;PMS_P2;Temp;Humidity;BMP_temperature;BMP_pressure;BME280_temperature;BME280_humidity;BME280_pressure;Samples;Min_cycle;Max_cycle;Signal;HPM_P1;HPM_P2
2023/01/05 00:02:05;;;;;;;;;;;;;;;10.30;100.00;101571.78;5045834;28;19928;-71
2023/01/05 00:04:30;;;;;;;;;;;;;;;10.29;100.00;101562.72;5049787;28;19939;-71
2023/01/05 00:06:55;;;;;;;;;;;;;;;10.26;100.00;101576.84;5049211;28;19925;-71
2023/01/05 00:09:20;;;;;;;;;;;;;;;10.33;100.00;101577.69;5049911;28;19921;-70
2023/01/05 00:22:29;;;;;;;;;;;;;;;10.34;100.00;101568.41;5049580;28;20310;-72
2023/01/05 00:22:57;;;;;;;;;;;;;;;10.64;98.65;101555.09;5049623;28;19931;-71
2023/01/05 00:25:24;;;;;;;;;;;;;;;10.24;100.00;101559.75;5050819;28;20331;-72
2023/01/05 00:27:50;;;;;;;;;;;;;;;10.19;99.88;101570.50;5049258;28;20356;-69
2023/01/05 00:30:17;;;;;;;;;;;;;;;10.45;99.04;101568.84;5050789;28;19920;-72
2023/01/05 00:32:42;;;;;;;;;;;;;;;10.04;100.00;101584.41;5048914;28;19916;-71
2023/01/05 00:35:08;;;;;;;;;;;;;;;10.09;100.00;101575.56;5050578;28;19974;-68
2023/01/05 00:37:34;;;;;;;;;;;;;;;9.90;100.00;101579.13;5049547;28;19982;-70
2023/01/05 00:39:59;;;;;;;;;;;;;;;9.98;100.00;101581.66;5049451;28;19921;-71
2023/01/05 00:42:24;;;;;;;;;;;;;;;9.97;100.00;101593.69;5049299;28;19925;-72
2023/01/05 00:44:50;;;;;;;;;;;;;;;9.92;100.00;101594.31;5049353;28;20367;-71
2023/01/05 00:47:15;;;;;;;;;;;;;;;9.93;100.00;101587.75;5048247;28;20267;-70
2023/01/05 00:49:40;;;;;;;;;;;;;;;9.83;100.00;101603.78;5050243;28;19924;-71
2023/01/05 00:52:06;;;;;;;;;;;;;;;10.27;100.00;101589.53;5050398;28;19923;-72
2023/01/05 00:54:31;;;;;;;;;;;;;;;9.91;100.00;101602.75;5049614;28;19925;-71
2023/01/05 00:56:56;;;;;;;;;;;;;;;9.74;100.00;101586.69;5049169;28;21014;-70
2023/01/05 00:59:21;;;;;;;;;;;;;;;9.84;100.00;101583.53;5050293;28;19917;-71
2023/01/05 01:01:47;;;;;;;;;;;;;;;9.68;100.00;101584.78;5048862;28;20325;-72
2023/01/05 01:04:13;;;;;;;;;;;;;;;9.71;100.00;101589.81;5049878;28;20534;-72
2023/01/05 01:06:38;;;;;;;;;;;;;;;9.60;100.00;101588.53;5046357;28;19975;-71
2023/01/05 01:09:04;;;;;;;;;;;;;;;9.66;100.00;101596.97;5033386;28;19927;-72
2023/01/05 01:11:29;;;;;;;;;;;;;;;9.62;100.00;101599.28;5048223;28;19974;-71
2023/01/05 01:13:54;;;;;;;;;;;;;;;9.60;100.00;101595.91;5048363;28;19927;-68
2023/01/05 01:16:20;;;;;;;;;;;;;;;9.59;100.00;101600.56;5047294;28;19927;-70
2023/01/05 01:18:45;;;;;;;;;;;;;;;9.58;100.00;101595.28;5048818;28;19928;-72
2023/01/05 01:21:10;;;;;;;;;;;;;;;9.58;100.00;101587.06;5048826;28;19921;-72
2023/01/05 01:23:38;;;;;;;;;;;;;;;9.40;100.00;101592.25;5049663;28;20021;-68
2023/01/05 01:26:04;;;;;;;;;;;;;;;9.40;100.00;101603.22;5049520;28;19927;-69
2023/01/05 01:28:29;;;;;;;;;;;;;;;9.33;100.00;101614.16;5048715;28;20012;-71
2023/01/05 01:30:55;;;;;;;;;;;;;;;9.32;100.00;101615.19;5048663;28;20008;-73
2023/01/05 01:33:20;;;;;;;;;;;;;;;9.35;100.00;101615.63;5048960;28;19921;-70
2023/01/05 01:35:46;;;;;;;;;;;;;;;9.31;100.00;101619.84;5048945;28;20471;-73
2023/01/05 01:38:11;;;;;;;;;;;;;;;9.21;100.00;101621.25;5080334;28;20364;-73
2023/01/05 01:40:43;;;;;;;;;;;;;;;9.30;100.00;101620.03;5049385;28;20378;-72
2023/01/05 01:43:12;;;;;;;;;;;;;;;9.20;100.00;101634.13;5080289;28;20334;-72
2023/01/05 01:45:37;;;;;;;;;;;;;;;9.32;100.00;101635.22;5047560;28;19928;-69
2023/01/05 01:48:03;;;;;;;;;;;;;;;9.25;100.00;101639.00;5048762;28;19925;-72
2023/01/05 01:50:33;;;;;;;;;;;;;;;9.34;100.00;101635.03;5049598;28;20276;-72
2023/01/05 01:53:05;;;;;;;;;;;;;;;9.27;100.00;101640.47;5048202;28;19940;-73
2023/01/05 01:55:30;;;;;;;;;;;;;;;9.57;100.00;101640.19;5049298;28;19938;-73
2023/01/05 01:57:56;;;;;;;;;;;;;;;9.42;100.00;101644.97;5047679;28;20012;-73
2023/01/05 02:00:21;;;;;;;;;;;;;;;9.30;100.00;101647.47;5048346;28;19928;-73
2023/01/05 02:02:48;;;;;;;;;;;;;;;9.31;100.00;101647.25;5082977;22;19925;-73
2023/01/05 02:05:15;;;;;;;;;;;;;;;9.25;100.00;101647.22;5028408;28;20450;-72
2023/01/05 02:07:43;;;;;;;;;;;;;;;9.31;100.00;101652.72;5027834;28;19921;-74
2023/01/05 02:10:08;;;;;;;;;;;;;;;9.34;100.00;101649.59;5026936;28;19921;-70
2023/01/05 02:12:33;;;;;;;;;;;;;;;9.45;100.00;101652.81;5027185;28;19921;-72
2023/01/05 02:14:59;;;;;;;;;;;;;;;9.42;100.00;101655.94;5026553;28;20011;-73
2023/01/05 02:17:27;;;;;;;;;;;;;;;9.43;100.00;101653.03;5026586;28;19921;-72
2023/01/05 02:20:13;;;;;;;;;;;;;;;9.43;100.00;101660.38;5027392;28;19939;-73
2023/01/05 02:22:56;;;;;;;;;;;;;;;9.65;100.00;101653.75;5026910;28;20338;-73
2023/01/05 02:25:50;;;;;;;;;;;;;;;9.75;100.00;101651.47;5027414;28;19986;-71
2023/01/05 02:28:26;;;;;;;;;;;;;;;9.54;100.00;101644.22;5027626;28;20307;-72
2023/01/05 02:31:11;;;;;;;;;;;;;;;9.75;100.00;101654.19;5026931;28;20006;-72
2023/01/05 02:33:40;;;;;;;;;;;;;;;9.64;100.00;101646.56;5028358;28;19917;-72
2023/01/05 02:36:05;;;;;;;;;;;;;;;9.78;100.00;101647.44;5027147;28;19921;-72
2023/01/05 02:38:41;;;;;;;;;;;;;;;9.77;100.00;101643.84;5012168;28;20292;-71
2023/01/05 02:41:14;;;;;;;;;;;;;;;9.75;100.00;101651.47;5008510;28;20024;-67
2023/01/05 02:43:42;;;;;;;;;;;;;;;9.72;100.00;101659.25;5016660;28;20087;-73
2023/01/05 02:46:07;;;;;;;;;;;;;;;9.72;100.00;101657.34;5026137;28;19924;-69
2023/01/05 02:48:32;;;;;;;;;;;;;;;9.71;100.00;101660.31;5025746;28;19925;-73
2023/01/05 02:51:00;;;;;;;;;;;;;;;9.70;100.00;101655.88;5025812;28;20010;-71
2023/01/05 02:53:31;;;;;;;;;;;;;;;9.72;100.00;101656.50;5026859;28;19987;-73
2023/01/05 02:56:01;;;;;;;;;;;;;;;9.95;100.00;101658.91;5026897;28;20401;-73
2023/01/05 02:58:42;;;;;;;;;;;;;;;9.88;100.00;101665.22;5027111;28;19921;-71
2023/01/05 03:01:13;;;;;;;;;;;;;;;10.00;100.00;101664.63;5042120;28;19917;-68
2023/01/05 03:03:41;;;;;;;;;;;;;;;9.99;100.00;101654.72;5027230;28;19921;-72
2023/01/05 03:06:19;;;;;;;;;;;;;;;9.88;100.00;101661.63;5028255;28;19917;-73
2023/01/05 03:08:48;;;;;;;;;;;;;;;9.89;100.00;101663.34;5026721;28;19917;-72
2023/01/05 03:14:19;;;;;;;;;;;;;;;10.12;100.00;101669.28;5026573;28;19932;-72
2023/01/05 03:16:46;;;;;;;;;;;;;;;9.93;100.00;101680.22;5026179;28;20043;-72
2023/01/05 03:35:49;;;;;;;;;;;;;;;10.01;100.00;101688.28;5007110;28;19940;-71
2023/01/05 03:38:22;;;;;;;;;;;;;;;10.02;100.00;101684.47;5008677;28;19921;-67
2023/01/05 03:40:52;;;;;;;;;;;;;;;10.01;100.00;101682.78;5031219;28;20011;-73
2023/01/05 03:43:18;;;;;;;;;;;;;;;9.97;100.00;101670.50;5030737;28;19917;-72
2023/01/05 03:45:45;;;;;;;;;;;;;;;10.03;100.00;101672.44;5030342;28;19921;-71
2023/01/05 03:48:10;;;;;;;;;;;;;;;10.00;100.00;101673.69;5030246;28;19924;-72
2023/01/05 03:50:36;;;;;;;;;;;;;;;9.97;100.00;101676.00;5031570;28;19921;-70
2023/01/05 03:53:01;;;;;;;;;;;;;;;10.03;100.00;101677.91;5029461;28;19917;-72
2023/01/05 03:55:27;;;;;;;;;;;;;;;10.01;100.00;101677.28;5031282;28;19939;-72
2023/01/05 03:57:52;;;;;;;;;;;;;;;9.99;100.00;101679.41;5030341;28;19983;-72
2023/01/05 04:00:19;;;;;;;;;;;;;;;10.07;100.00;101682.78;5030363;28;19927;-72
2023/01/05 04:02:44;;;;;;;;;;;;;;;10.03;100.00;101672.44;5029729;28;19943;-73
2023/01/05 04:05:09;;;;;;;;;;;;;;;10.04;100.00;101682.38;5030285;28;19921;-69
2023/01/05 04:07:34;;;;;;;;;;;;;;;9.97;100.00;101681.50;5030296;28;19922;-71
2023/01/05 04:10:00;;;;;;;;;;;;;;;10.02;100.00;101678.97;5029851;28;20283;-72
2023/01/05 04:12:25;;;;;;;;;;;;;;;10.03;100.00;101675.16;5029634;28;19963;-73
2023/01/05 04:14:50;;;;;;;;;;;;;;;10.01;100.00;101669.91;5028498;28;19960;-73
2023/01/05 04:17:15;;;;;;;;;;;;;;;9.99;100.00;101668.44;5029239;28;19921;-69
2023/01/05 04:19:41;;;;;;;;;;;;;;;10.08;100.00;101680.88;5029286;28;19949;-73
2023/01/05 04:22:06;;;;;;;;;;;;;;;10.10;100.00;101676.91;5029579;28;20399;-73
2023/01/05 04:24:31;;;;;;;;;;;;;;;10.07;100.00;101676.47;5025381;28;20421;-72
2023/01/05 04:26:56;;;;;;;;;;;;;;;10.06;100.00;101672.88;5009789;28;19917;-72
2023/01/05 04:29:21;;;;;;;;;;;;;;;10.07;100.00;101677.31;5023705;28;19921;-73
2023/01/05 04:31:47;;;;;;;;;;;;;;;10.03;100.00;101681.50;5028347;28;19971;-70
2023/01/05 04:34:12;;;;;;;;;;;;;;;10.08;100.00;101683.63;5029855;28;19917;-72
2023/01/05 04:36:37;;;;;;;;;;;;;;;10.22;100.00;101677.13;5029600;28;19975;-68
2023/01/05 04:39:02;;;;;;;;;;;;;;;10.12;100.00;101684.91;5030318;28;19917;-72
2023/01/05 04:41:27;;;;;;;;;;;;;;;10.24;100.00;101688.78;5030137;28;19917;-72
2023/01/05 04:43:52;;;;;;;;;;;;;;;10.08;100.00;101683.63;5028336;28;19968;-70
2023/01/05 04:46:18;;;;;;;;;;;;;;;10.36;100.00;101678.88;5022084;28;20298;-72
2023/01/05 04:48:43;;;;;;;;;;;;;;;10.18;100.00;101684.06;5009417;28;19944;-71
2023/01/05 04:51:08;;;;;;;;;;;;;;;10.25;100.00;101679.50;5021282;28;19921;-72
2023/01/05 04:53:33;;;;;;;;;;;;;;;10.23;100.00;101678.81;5029052;28;19917;-71
2023/01/05 04:55:58;;;;;;;;;;;;;;;10.23;100.00;101686.19;5028964;28;19928;-70
2023/01/05 04:58:24;;;;;;;;;;;;;;;10.11;100.00;101691.47;5029078;28;20012;-72
2023/01/05 05:00:49;;;;;;;;;;;;;;;10.12;100.00;101695.91;5027876;28;20334;-72
2023/01/05 05:03:15;;;;;;;;;;;;;;;10.05;100.00;101695.03;5028615;28;19929;-73
2023/01/05 05:05:40;;;;;;;;;;;;;;;10.03;100.00;101689.75;5029522;28;20301;-69
2023/01/05 05:08:05;;;;;;;;;;;;;;;10.03;100.00;101700.72;5028934;28;20531;-72
2023/01/05 05:10:30;;;;;;;;;;;;;;;10.07;100.00;101701.16;5029476;28;19921;-71
2023/01/05 05:12:55;;;;;;;;;;;;;;;10.01;100.00;101707.47;5028197;28;20303;-73
2023/01/05 05:15:20;;;;;;;;;;;;;;;10.08;100.00;101711.06;5028540;28;20016;-72
2023/01/05 05:17:47;;;;;;;;;;;;;;;10.19;100.00;101715.13;5027977;28;19917;-68
2023/01/05 05:20:12;;;;;;;;;;;;;;;10.11;100.00;101717.00;5028083;28;19936;-72
2023/01/05 05:22:37;;;;;;;;;;;;;;;10.14;100.00;101716.59;5028810;28;19921;-71
2023/01/05 05:25:02;;;;;;;;;;;;;;;10.21;100.00;101719.38;5029248;28;19939;-73
2023/01/05 05:27:28;;;;;;;;;;;;;;;10.17;100.00;101717.22;5028914;28;19928;-72
2023/01/05 05:29:53;;;;;;;;;;;;;;;10.13;100.00;101719.53;5026418;28;19921;-72
2023/01/05 05:32:18;;;;;;;;;;;;;;;10.09;100.00;101723.78;5009754;28;19917;-70
2023/01/05 05:34:43;;;;;;;;;;;;;;;10.14;100.00;101718.50;5008986;28;19940;-70
2023/01/05 05:37:08;;;;;;;;;;;;;;;10.20;100.00;101727.81;5014009;28;20494;-70
2023/01/05 05:39:34;;;;;;;;;;;;;;;10.12;100.00;101726.94;5028042;28;19928;-69
2023/01/05 05:41:59;;;;;;;;;;;;;;;10.12;100.00;101731.56;5028389;28;20336;-70
2023/01/05 05:44:24;;;;;;;;;;;;;;;10.30;100.00;101731.88;5027977;28;19917;-69
2023/01/05 05:46:49;;;;;;;;;;;;;;;10.24;100.00;101735.47;5026465;28;19963;-70
2023/01/05 05:49:14;;;;;;;;;;;;;;;10.30;100.00;101740.13;5028267;28;19948;-71
2023/01/05 05:51:40;;;;;;;;;;;;;;;10.19;100.00;101737.94;5028162;28;19976;-72
2023/01/05 05:54:05;;;;;;;;;;;;;;;10.17;100.00;101747.44;5025702;28;19928;-69
2023/01/05 05:56:30;;;;;;;;;;;;;;;10.22;100.00;101751.25;5026579;28;19928;-71
2023/01/05 05:58:55;;;;;;;;;;;;;;;10.23;100.00;101755.69;5025666;28;19917;-73
2023/01/05 06:01:21;;;;;;;;;;;;;;;10.13;100.00;101760.72;5022632;28;19943;-72
2023/01/05 06:03:46;;;;;;;;;;;;;;;10.25;100.00;101764.59;5025263;28;19944;-72
2023/01/05 06:06:11;;;;;;;;;;;;;;;10.27;100.00;101767.97;5026296;28;20446;-73
2023/01/05 06:08:36;;;;;;;;;;;;;;;10.16;100.00;101764.97;5025644;28;19921;-71
2023/01/05 06:11:01;;;;;;;;;;;;;;;10.13;100.00;101769.78;5020365;28;19972;-73
2023/01/05 06:13:26;;;;;;;;;;;;;;;10.14;100.00;101759.69;5016945;28;19925;-70
2023/01/05 06:15:52;;;;;;;;;;;;;;;10.17;100.00;101772.97;5023072;28;20378;-72
2023/01/05 06:18:17;;;;;;;;;;;;;;;10.19;100.00;101768.16;5024229;28;19921;-73
2023/01/05 06:20:42;;;;;;;;;;;;;;;10.26;100.00;101768.19;5024000;28;20062;-72
2023/01/05 06:23:07;;;;;;;;;;;;;;;10.19;100.00;101772.75;5023621;28;19964;-72
2023/01/05 06:25:33;;;;;;;;;;;;;;;10.05;100.00;101780.13;5025621;28;19921;-73
2023/01/05 06:27:58;;;;;;;;;;;;;;;9.93;100.00;101788.06;5024101;28;20441;-71
2023/01/05 06:30:24;;;;;;;;;;;;;;;9.87;100.00;101797.97;5021022;28;19936;-73
2023/01/05 06:32:49;;;;;;;;;;;;;;;9.91;100.00;101781.94;5024717;28;19948;-71
2023/01/05 06:35:14;;;;;;;;;;;;;;;9.87;100.00;101791.63;5025767;28;19982;-73
2023/01/05 06:37:39;;;;;;;;;;;;;;;9.88;100.00;101799.69;5024828;28;19971;-71
2023/01/05 06:40:05;;;;;;;;;;;;;;;9.88;100.00;101802.44;5026333;28;19969;-73
2023/01/05 06:42:31;;;;;;;;;;;;;;;9.84;100.00;101803.88;5025179;28;20018;-73
2023/01/05 06:44:57;;;;;;;;;;;;;;;9.96;100.00;101806.03;5023708;28;20650;-72
2023/01/05 06:47:22;;;;;;;;;;;;;;;10.06;100.00;101814.75;5024649;28;20453;-73
2023/01/05 06:49:47;;;;;;;;;;;;;;;9.96;100.00;101819.75;5025274;28;20367;-72
2023/01/05 06:52:12;;;;;;;;;;;;;;;9.91;100.00;101819.53;5025572;28;19940;-73
2023/01/05 06:54:37;;;;;;;;;;;;;;;9.95;100.00;101827.16;5021634;28;20000;-72
2023/01/05 06:57:03;;;;;;;;;;;;;;;9.99;100.00;101827.59;5014531;28;19925;-72
2023/01/05 06:59:28;;;;;;;;;;;;;;;9.93;100.00;101836.63;5025713;28;19917;-72
2023/01/05 07:01:53;;;;;;;;;;;;;;;9.88;100.00;101829.88;5023254;28;19979;-73
2023/01/05 07:04:18;;;;;;;;;;;;;;;9.99;100.00;101825.69;5021492;28;19925;-74
2023/01/05 07:06:43;;;;;;;;;;;;;;;9.91;100.00;101825.00;5024333;28;19921;-72
2023/01/05 07:09:09;;;;;;;;;;;;;;;10.02;100.00;101822.53;5024812;28;19944;-71
2023/01/05 07:11:34;;;;;;;;;;;;;;;10.00;100.00;101823.81;5022733;28;19972;-71
2023/01/05 07:13:59;;;;;;;;;;;;;;;10.02;100.00;101838.16;5023416;28;19927;-73
2023/01/05 07:16:24;;;;;;;;;;;;;;;10.19;100.00;101827.66;5024950;28;19968;-75
2023/01/05 07:18:49;;;;;;;;;;;;;;;9.97;100.00;101836.00;5024981;28;20027;-71
2023/01/05 07:21:15;;;;;;;;;;;;;;;9.94;100.00;101841.09;5025291;28;20322;-69
2023/01/05 07:23:40;;;;;;;;;;;;;;;9.93;100.00;101842.94;5024661;28;19968;-72
2023/01/05 07:26:06;;;;;;;;;;;;;;;10.02;100.00;101838.16;5025036;28;19929;-74
2023/01/05 07:28:32;;;;;;;;;;;;;;;9.91;100.00;101847.81;5025209;28;19917;-69
2023/01/05 07:30:57;;;;;;;;;;;;;;;9.98;100.00;101842.34;5024204;28;20478;-74
2023/01/05 07:33:22;;;;;;;;;;;;;;;9.96;100.00;101848.06;5007321;28;19921;-74
2023/01/05 07:35:47;;;;;;;;;;;;;;;10.01;100.00;101841.97;5024734;28;19921;-72
2023/01/05 07:38:13;;;;;;;;;;;;;;;9.99;100.00;101849.56;5024693;28;19920;-69
2023/01/05 07:40:38;;;;;;;;;;;;;;;9.88;100.00;101854.56;5024982;28;19918;-73
2023/01/05 07:43:04;;;;;;;;;;;;;;;9.91;100.00;101860.69;5025661;28;19917;-75
2023/01/05 07:45:29;;;;;;;;;;;;;;;9.90;100.00;101853.50;5024789;28;19917;-75
2023/01/05 07:47:54;;;;;;;;;;;;;;;9.90;100.00;101865.31;5024374;28;20008;-74
2023/01/05 07:50:19;;;;;;;;;;;;;;;10.13;100.00;101862.28;5024489;28;19921;-73
2023/01/05 07:52:45;;;;;;;;;;;;;;;9.91;100.00;101857.94;5024124;28;20016;-72
2023/01/05 07:55:10;;;;;;;;;;;;;;;9.90;100.00;101857.09;5019913;28;19929;-75
2023/01/05 07:57:35;;;;;;;;;;;;;;;10.10;100.00;101859.97;5025530;28;19917;-75
2023/01/05 08:00:01;;;;;;;;;;;;;;;9.95;100.00;101867.47;5024369;28;19917;-67
2023/01/05 08:02:26;;;;;;;;;;;;;;;10.09;100.00;101872.00;5024677;28;19991;-72
2023/01/05 08:04:51;;;;;;;;;;;;;;;9.93;100.00;101877.78;5024402;28;19917;-70
2023/01/05 08:07:17;;;;;;;;;;;;;;;9.88;100.00;101882.00;5024255;28;20357;-72
2023/01/05 08:12:27;;;;;;;;;;;;;;;9.91;100.00;101877.16;5023103;28;19964;-70
2023/01/05 08:14:52;;;;;;;;;;;;;;;10.13;100.00;101890.56;5023511;28;20426;-68
2023/01/05 08:17:17;;;;;;;;;;;;;;;9.93;100.00;101886.84;5024466;28;19924;-71
2023/01/05 08:19:42;;;;;;;;;;;;;;;10.15;100.00;101890.41;5022785;28;19928;-73
2023/01/05 08:22:08;;;;;;;;;;;;;;;10.28;100.00;101892.38;5024325;28;20382;-70
2023/01/05 08:24:33;;;;;;;;;;;;;;;10.04;100.00;101902.78;5021338;28;19925;-72
2023/01/05 08:26:58;;;;;;;;;;;;;;;10.14;100.00;101895.03;5021750;28;19980;-73
2023/01/05 08:29:23;;;;;;;;;;;;;;;10.22;100.00;101894.00;5014646;28;19951;-71
2023/01/05 08:31:49;;;;;;;;;;;;;;;10.18;100.00;101889.13;5024167;28;19925;-74
2023/01/05 08:34:14;;;;;;;;;;;;;;;10.34;100.00;101892.44;5027622;28;19928;-67
2023/01/05 08:36:39;;;;;;;;;;;;;;;10.12;100.00;101901.75;5025210;28;20291;-70
2023/01/05 08:39:04;;;;;;;;;;;;;;;10.21;100.00;101908.78;5023571;28;19971;-73
2023/01/05 08:41:31;;;;;;;;;;;;;;;10.21;100.00;101907.94;5028256;28;19998;-63
2023/01/05 08:43:58;;;;;;;;;;;;;;;10.38;100.00;101915.66;5024761;28;20212;-66
2023/01/05 08:46:25;;;;;;;;;;;;;;;10.24;100.00;101924.91;5027435;28;19917;-65
2023/01/05 08:48:51;;;;;;;;;;;;;;;10.22;100.00;101920.63;5028215;28;20190;-71
2023/01/05 08:51:16;;;;;;;;;;;;;;;10.28;100.00;101925.31;5027409;28;19929;-64
2023/01/05 08:53:41;;;;;;;;;;;;;;;10.39;100.00;101933.00;5027667;28;20279;-68
2023/01/05 08:56:07;;;;;;;;;;;;;;;10.47;100.00;101919.09;5024938;28;19917;-65
2023/01/05 08:58:33;;;;;;;;;;;;;;;10.32;100.00;101932.97;5016501;28;19932;-64
2023/01/05 09:00:58;;;;;;;;;;;;;;;10.34;100.00;101936.38;5024935;28;19921;-61
2023/01/05 09:03:23;;;;;;;;;;;;;;;10.32;100.00;101938.47;5026452;28;20024;-67
2023/01/05 09:05:51;;;;;;;;;;;;;;;10.33;100.00;101937.41;5025492;28;19921;-66
2023/01/05 09:08:16;;;;;;;;;;;;;;;10.36;100.00;101941.66;5027237;28;19948;-63
2023/01/05 09:10:41;;;;;;;;;;;;;;;10.41;100.00;101946.53;5026845;28;20410;-64
2023/01/05 09:13:07;;;;;;;;;;;;;;;10.43;100.00;101950.75;5026637;28;19921;-67
2023/01/05 09:15:33;;;;;;;;;;;;;;;10.52;100.00;101960.53;5027189;28;19925;-64
2023/01/05 09:17:58;;;;;;;;;;;;;;;10.59;100.00;101960.56;5027420;28;19924;-64
2023/01/05 09:20:23;;;;;;;;;;;;;;;10.67;100.00;101963.16;5027487;28;20308;-65
2023/01/05 09:22:49;;;;;;;;;;;;;;;10.55;100.00;101964.78;5025976;28;19921;-61
2023/01/05 09:25:14;;;;;;;;;;;;;;;10.54;100.00;101963.06;5027083;28;19987;-65
2023/01/05 09:27:40;;;;;;;;;;;;;;;10.59;100.00;101963.31;5026696;28;19924;-70
2023/01/05 09:30:05;;;;;;;;;;;;;;;10.59;100.00;101961.44;5025595;28;19929;-64
2023/01/05 09:32:30;;;;;;;;;;;;;;;10.65;100.00;101970.75;5026409;28;20020;-64
2023/01/05 09:34:56;;;;;;;;;;;;;;;10.69;100.00;101982.16;5027002;28;19924;-65
2023/01/05 09:37:21;;;;;;;;;;;;;;;10.72;100.00;101981.78;5026130;28;20051;-63
2023/01/05 09:39:46;;;;;;;;;;;;;;;10.78;100.00;101987.28;5027260;28;19963;-64
2023/01/05 09:42:16;;;;;;;;;;;;;;;10.87;100.00;101974.22;5025961;28;19921;-67
2023/01/05 09:44:43;;;;;;;;;;;;;;;10.87;100.00;101983.31;5026247;28;19918;-64
2023/01/05 09:47:15;;;;;;;;;;;;;;;10.87;100.00;101980.56;5023171;28;19917;-66
2023/01/05 09:49:40;;;;;;;;;;;;;;;10.97;100.00;101990.34;5026658;28;20028;-64
2023/01/05 09:52:08;;;;;;;;;;;;;;;11.05;100.00;101992.91;5027067;28;19966;-65
2023/01/05 09:54:34;;;;;;;;;;;;;;;11.14;99.93;101986.16;5027518;28;19921;-62
2023/01/05 09:56:59;;;;;;;;;;;;;;;11.15;100.00;101998.84;5025532;28;19951;-65
2023/01/05 09:59:27;;;;;;;;;;;;;;;11.26;98.62;101992.78;5026037;28;19990;-61
2023/01/05 10:01:54;;;;;;;;;;;;;;;11.06;100.00;101997.38;5026221;28;19917;-62
2023/01/05 10:04:21;;;;;;;;;;;;;;;11.05;99.85;102001.16;5028072;28;20011;-61
2023/01/05 10:06:50;;;;;;;;;;;;;;;10.96;99.49;102005.16;5025387;28;19918;-62
2023/01/05 10:09:24;;;;;;;;;;;;;;;11.00;100.00;102006.41;5028051;28;19921;-62
2023/01/05 10:14:54;;;;;;;;;;;;;;;10.99;99.93;102001.97;5025289;28;19999;-63
2023/01/05 10:17:21;;;;;;;;;;;;;;;11.04;100.00;102008.53;5025321;28;19928;-63
2023/01/05 10:19:46;;;;;;;;;;;;;;;11.08;100.00;102009.84;5026179;28;20383;-63
2023/01/05 10:22:14;;;;;;;;;;;;;;;11.14;100.00;102014.50;5024989;28;19921;-62
2023/01/05 10:25:01;;;;;;;;;;;;;;;11.24;100.00;102016.88;5026075;28;19978;-62
2023/01/05 10:27:44;;;;;;;;;;;;;;;11.45;99.05;102015.88;5025663;28;19963;-64
2023/01/05 10:30:09;;;;;;;;;;;;;;;11.37;98.76;102018.81;5025464;28;19925;-62
2023/01/05 10:32:41;;;;;;;;;;;;;;;11.27;99.25;102026.63;5026543;28;19929;-64
2023/01/05 10:35:19;;;;;;;;;;;;;;;11.31;99.69;102016.91;5026821;28;20338;-62
2023/01/05 10:38:04;;;;;;;;;;;;;;;11.45;98.40;102010.38;5024561;28;19921;-62
2023/01/05 10:40:56;;;;;;;;;;;;;;;11.31;98.74;102026.00;5025248;28;19917;-64
2023/01/05 10:43:21;;;;;;;;;;;;;;;11.37;99.34;102022.44;5004866;28;19960;-62
2023/01/05 10:45:46;;;;;;;;;;;;;;;11.37;98.85;102018.81;5004956;28;19917;-64
2023/01/05 10:48:18;;;;;;;;;;;;;;;11.42;99.15;102025.41;5006163;28;19917;-63
2023/01/05 10:50:44;;;;;;;;;;;;;;;11.44;98.37;102026.03;5007329;28;20534;-62
2023/01/05 10:53:12;;;;;;;;;;;;;;;11.59;96.40;102017.59;5025563;28;20287;-64
2023/01/05 10:55:44;;;;;;;;;;;;;;;11.31;98.26;102026.00;5025413;28;19917;-64
2023/01/05 10:58:22;;;;;;;;;;;;;;;11.24;99.18;102024.28;5026447;28;20003;-62
2023/01/05 11:00:48;;;;;;;;;;;;;;;11.24;98.47;102022.38;5022284;28;20682;-63
2023/01/05 11:03:15;;;;;;;;;;;;;;;11.18;98.99;102015.78;5025067;28;19960;-63
2023/01/05 11:05:44;;;;;;;;;;;;;;;11.37;97.46;102011.41;5008263;28;19972;-64
2023/01/05 11:08:16;;;;;;;;;;;;;;;11.21;98.18;102025.56;5007615;28;19917;-62
2023/01/05 11:10:51;;;;;;;;;;;;;;;11.31;97.55;102020.50;5012845;28;19921;-64
2023/01/05 11:13:22;;;;;;;;;;;;;;;11.19;98.49;102033.13;5023903;28;19925;-64
2023/01/05 11:16:20;;;;;;;;;;;;;;;11.21;97.71;102024.72;5024859;28;20064;-62
2023/01/05 11:18:50;;;;;;;;;;;;;;;11.09;98.98;102027.19;5032416;28;19917;-62
2023/01/05 11:21:23;;;;;;;;;;;;;;;11.13;98.78;102028.47;5026657;28;19921;-62
2023/01/05 11:23:53;;;;;;;;;;;;;;;11.14;98.59;102024.66;5025016;28;20449;-62
2023/01/05 11:26:18;;;;;;;;;;;;;;;11.13;99.24;102021.06;5026189;28;19937;-63
2023/01/05 11:28:56;;;;;;;;;;;;;;;11.20;99.33;102026.59;5024963;28;20023;-63
2023/01/05 11:31:21;;;;;;;;;;;;;;;11.46;98.62;102016.75;5026144;28;20424;-65
2023/01/05 11:33:54;;;;;;;;;;;;;;;11.70;96.96;102016.97;5026216;28;20015;-62
2023/01/05 11:36:19;;;;;;;;;;;;;;;11.73;96.58;102007.47;5027242;28;19917;-62
2023/01/05 11:38:50;;;;;;;;;;;;;;;11.96;95.53;102018.09;5025079;28;20326;-62
2023/01/05 11:41:17;;;;;;;;;;;;;;;12.19;95.07;102017.69;5027130;28;20012;-62
2023/01/05 11:43:45;;;;;;;;;;;;;;;12.30;94.65;102010.66;5026115;28;19921;-63
2023/01/05 11:46:13;;;;;;;;;;;;;;;12.24;94.12;102014.28;5024765;28;19921;-63
2023/01/05 11:48:46;;;;;;;;;;;;;;;12.22;94.16;102011.75;5026593;28;19952;-63
2023/01/05 11:51:30;;;;;;;;;;;;;;;12.09;94.81;102014.50;5027351;28;19926;-62
2023/01/05 11:53:56;;;;;;;;;;;;;;;11.90;95.56;102008.78;5025024;28;20327;-62
2023/01/05 11:56:22;;;;;;;;;;;;;;;11.92;94.77;102006.66;5026842;28;19917;-63
2023/01/05 11:58:54;;;;;;;;;;;;;;;11.82;96.12;102005.41;5007888;28;20012;-63
2023/01/05 12:01:31;;;;;;;;;;;;;;;12.07;92.64;102000.09;5029831;28;19928;-64
2023/01/05 12:04:06;;;;;;;;;;;;;;;11.87;94.36;102002.84;5028664;28;19932;-63
2023/01/05 12:06:42;;;;;;;;;;;;;;;11.79;94.63;102001.13;5030852;28;19959;-62
2023/01/05 12:09:10;;;;;;;;;;;;;;;11.64;95.45;101998.56;5029242;28;19924;-67
2023/01/05 12:11:45;;;;;;;;;;;;;;;11.55;96.43;101999.81;5031045;28;19917;-62
2023/01/05 12:14:20;;;;;;;;;;;;;;;11.47;96.81;102002.78;5029062;28;19987;-63
2023/01/05 12:16:48;;;;;;;;;;;;;;;11.44;95.60;101995.78;5030573;28;20335;-63
2023/01/05 12:19:25;;;;;;;;;;;;;;;11.23;96.62;102001.44;5029724;28;19928;-62
2023/01/05 12:21:50;;;;;;;;;;;;;;;11.27;97.27;101997.22;5030004;28;20011;-63
2023/01/05 12:24:35;;;;;;;;;;;;;;;11.36;97.05;101995.97;5029033;28;19952;-62
2023/01/05 12:27:06;;;;;;;;;;;;;;;11.45;95.14;101999.34;5029638;28;20321;-63
2023/01/05 12:29:37;;;;;;;;;;;;;;;11.48;95.81;102001.72;5028217;28;19924;-62
2023/01/05 12:32:10;;;;;;;;;;;;;;;11.32;96.61;102002.94;5026672;28;20384;-63
2023/01/05 12:34:38;;;;;;;;;;;;;;;11.31;96.04;102004.00;5029856;28;19921;-62
2023/01/05 12:37:14;;;;;;;;;;;;;;;11.40;96.55;102007.38;5030097;28;19921;-64
2023/01/05 12:39:58;;;;;;;;;;;;;;;11.68;95.11;102010.84;5029776;28;20023;-64
2023/01/05 12:42:23;;;;;;;;;;;;;;;12.46;91.37;102002.78;5029034;28;19917;-65
2023/01/05 12:44:57;;;;;;;;;;;;;;;12.69;91.96;101990.44;5028477;28;20070;-65
2023/01/05 12:47:31;;;;;;;;;;;;;;;13.04;90.32;101998.38;5026940;28;19921;-65
2023/01/05 12:49:59;;;;;;;;;;;;;;;13.46;87.88;101989.47;5027892;28;19983;-65
2023/01/05 12:52:38;;;;;;;;;;;;;;;13.11;87.72;101989.00;5027537;28;20013;-65
2023/01/05 12:55:03;;;;;;;;;;;;;;;12.71;89.18;101991.91;5029248;28;19917;-65
2023/01/05 12:57:32;;;;;;;;;;;;;;;12.41;89.29;101986.06;5029580;28;20406;-65
2023/01/05 13:00:00;;;;;;;;;;;;;;;12.26;91.09;101990.97;5029035;28;19979;-64
2023/01/05 13:02:25;;;;;;;;;;;;;;;12.27;90.24;101986.31;5029290;28;20016;-65
2023/01/05 13:05:06;;;;;;;;;;;;;;;11.93;90.98;101983.59;5027781;28;20349;-66
2023/01/05 13:07:50;;;;;;;;;;;;;;;11.81;91.87;101976.13;5028483;28;19944;-65
2023/01/05 13:10:21;;;;;;;;;;;;;;;11.71;92.99;101979.31;5028953;28;20265;-65